createdAt,value
2019-01-09T00:01:50.891Z,-0.50
2019-01-09T00:04:21.197Z,-0.50
2019-01-09T00:06:51.523Z,-0.50
2019-01-09T00:09:21.787Z,-0.50
2019-01-09T00:11:52.171Z,-0.60
2019-01-09T00:14:22.423Z,-0.60
2019-01-09T00:16:52.791Z,-0.60
2019-01-09T00:19:23.150Z,-0.60
2019-01-09T00:21:54.395Z,-0.60
2019-01-09T00:24:24.811Z,-0.60
2019-01-09T00:26:55.129Z,-0.60
2019-01-09T00:29:25.446Z,-0.60
2019-01-09T00:31:55.844Z,-0.60
2019-01-09T00:34:26.202Z,-0.60
2019-01-09T00:36:56.610Z,-0.60
2019-01-09T00:39:26.900Z,-0.60
2019-01-09T00:41:57.177Z,-0.60
2019-01-09T00:44:27.476Z,-0.60
2019-01-09T00:46:57.727Z,-0.70
2019-01-09T00:49:28.033Z,-0.70
2019-01-09T00:51:58.308Z,-0.70
2019-01-09T00:54:29.592Z,-0.70
2019-01-09T00:56:59.871Z,-0.70
2019-01-09T00:59:30.126Z,-0.70
2019-01-09T01:02:24.370Z,-0.70
2019-01-09T01:05:45.823Z,-0.70
2019-01-09T01:08:45.804Z,-0.70
2019-01-09T01:11:36.942Z,-0.70
2019-01-09T01:15:15.478Z,-0.70
2019-01-09T01:18:00.011Z,-0.70
2019-01-09T01:20:54.372Z,-0.70
2019-01-09T01:24:00.020Z,-0.70
2019-01-09T01:26:51.470Z,-0.70
2019-01-09T01:30:13.487Z,-0.70
2019-01-09T01:33:31.332Z,-0.80
2019-01-09T01:36:48.686Z,-0.70
2019-01-09T01:39:52.602Z,-0.70
2019-01-09T01:43:03.584Z,-0.70
2019-01-09T01:45:56.662Z,-0.70
2019-01-09T01:49:03.490Z,-0.80
2019-01-09T01:52:10.782Z,-0.70
2019-01-09T01:55:08.032Z,-0.70
2019-01-09T01:58:21.934Z,-0.70
2019-01-09T02:01:26.661Z,-0.70
2019-01-09T02:04:21.085Z,-0.70
2019-01-09T02:07:30.958Z,-0.70
2019-01-09T02:10:38.949Z,-0.70
2019-01-09T02:13:46.590Z,-0.70
2019-01-09T02:16:50.566Z,-0.70
2019-01-09T02:19:26.230Z,-0.70
2019-01-09T02:22:32.574Z,-0.70
2019-01-09T02:25:24.689Z,-0.70
2019-01-09T02:28:09.897Z,-0.70
2019-01-09T02:31:06.078Z,-0.80
2019-01-09T02:33:36.380Z,-0.80
2019-01-09T02:36:13.348Z,-0.90
2019-01-09T02:38:38.512Z,-0.80
2019-01-09T02:41:08.786Z,-0.90
2019-01-09T02:43:39.149Z,-0.90
2019-01-09T02:46:09.329Z,-0.90
2019-01-09T02:48:40.412Z,-0.90
2019-01-09T02:51:10.650Z,-0.90
2019-01-09T02:53:40.821Z,-1.00
2019-01-09T02:56:10.997Z,-1.00
2019-01-09T02:58:41.218Z,-1.00
2019-01-09T03:01:11.498Z,-1.00
2019-01-09T03:03:42.674Z,-1.00
2019-01-09T03:06:22.715Z,-1.10
2019-01-09T03:08:45.945Z,-1.10
2019-01-09T03:11:16.136Z,-1.10
2019-01-09T03:13:46.310Z,-1.10
2019-01-09T03:16:16.454Z,-1.10
2019-01-09T03:18:46.640Z,-1.10
2019-01-09T03:21:16.945Z,-1.20
2019-01-09T03:23:47.221Z,-1.20
2019-01-09T03:26:17.558Z,-1.20
2019-01-09T03:28:47.942Z,-1.20
2019-01-09T03:31:18.233Z,-1.20
2019-01-09T03:33:48.443Z,-1.30
2019-01-09T03:36:18.597Z,-1.30
2019-01-09T03:38:48.845Z,-1.30
2019-01-09T03:41:20.153Z,-1.30
2019-01-09T03:43:50.372Z,-1.30
2019-01-09T03:46:20.677Z,-1.40
2019-01-09T03:48:51.747Z,-1.40
2019-01-09T03:51:21.967Z,-1.40
2019-01-09T03:53:52.310Z,-1.40
2019-01-09T03:56:22.474Z,-1.40
2019-01-09T03:58:52.627Z,-1.40
2019-01-09T04:01:22.828Z,-1.40
2019-01-09T04:03:53.012Z,-1.40
2019-01-09T04:06:23.241Z,-1.40
2019-01-09T04:08:53.412Z,-1.40
2019-01-09T04:11:23.630Z,-1.40
2019-01-09T04:13:53.840Z,-1.40
2019-01-09T04:16:24.087Z,-1.50
2019-01-09T04:18:54.312Z,-1.40
2019-01-09T04:21:24.497Z,-1.50
2019-01-09T04:23:54.786Z,-1.50
2019-01-09T04:26:25.023Z,-1.50
2019-01-09T04:28:55.206Z,-1.50
2019-01-09T04:31:25.372Z,-1.40
2019-01-09T04:33:55.519Z,-1.50
2019-01-09T04:36:25.678Z,-1.40
2019-01-09T04:38:55.822Z,-1.40
2019-01-09T04:41:26.111Z,-1.40
2019-01-09T04:43:56.394Z,-1.50
2019-01-09T04:46:26.681Z,-1.50
2019-01-09T04:48:57.794Z,-1.40
2019-01-09T04:51:28.185Z,-1.50
2019-01-09T04:53:59.415Z,-1.50
2019-01-09T04:56:29.993Z,-1.50
2019-01-09T04:59:00.181Z,-1.50
2019-01-09T05:01:30.353Z,-1.50
2019-01-09T05:04:00.687Z,-1.60
2019-01-09T05:06:30.975Z,-1.60
2019-01-09T05:09:01.134Z,-1.50
2019-01-09T05:11:32.994Z,-1.60
2019-01-09T05:14:04.219Z,-1.50
2019-01-09T05:16:34.478Z,-1.60
2019-01-09T05:19:04.767Z,-1.60
2019-01-09T05:21:35.034Z,-1.60
2019-01-09T05:24:05.290Z,-1.60
2019-01-09T05:26:35.517Z,-1.60
2019-01-09T05:29:05.769Z,-1.60
2019-01-09T05:31:36.037Z,-1.60
2019-01-09T05:34:06.382Z,-1.60
2019-01-09T05:36:36.697Z,-1.70
2019-01-09T05:39:07.792Z,-1.70
2019-01-09T05:41:37.986Z,-1.70
2019-01-09T05:44:08.171Z,-1.70
2019-01-09T05:46:38.343Z,-1.70
2019-01-09T05:49:09.450Z,-1.70
2019-01-09T05:51:39.690Z,-1.70
2019-01-09T05:54:09.886Z,-1.70
2019-01-09T05:56:40.039Z,-1.70
2019-01-09T05:59:10.331Z,-1.70
2019-01-09T06:01:40.529Z,-1.70
2019-01-09T06:04:10.689Z,-1.70
2019-01-09T06:06:40.853Z,-1.70
2019-01-09T06:09:11.037Z,-1.80
2019-01-09T06:11:41.253Z,-1.80
2019-01-09T06:14:11.572Z,-1.80
2019-01-09T06:16:41.746Z,-1.80
2019-01-09T06:19:12.031Z,-1.80
2019-01-09T06:21:42.173Z,-1.80
2019-01-09T06:24:12.397Z,-1.80
2019-01-09T06:26:42.586Z,-1.80
2019-01-09T06:29:12.873Z,-1.80
2019-01-09T06:31:43.059Z,-1.80
2019-01-09T06:34:13.314Z,-1.80
2019-01-09T06:36:43.683Z,-1.80
2019-01-09T06:39:13.867Z,-1.80
2019-01-09T06:41:44.053Z,-1.80
2019-01-09T06:44:14.248Z,-1.80
2019-01-09T06:46:44.410Z,-1.80
2019-01-09T06:49:15.538Z,-1.80
2019-01-09T06:51:45.754Z,-1.80
2019-01-09T06:54:15.906Z,-1.70
2019-01-09T06:56:46.108Z,-1.80
2019-01-09T06:59:16.419Z,-1.70
2019-01-09T07:01:46.662Z,-1.80
2019-01-09T07:04:16.864Z,-1.80
2019-01-09T07:06:47.025Z,-1.70
2019-01-09T07:09:17.205Z,-1.70
2019-01-09T07:11:48.241Z,-1.70
2019-01-09T07:14:18.629Z,-1.70
2019-01-09T07:16:48.825Z,-1.80
2019-01-09T07:19:19.050Z,-1.80
2019-01-09T07:21:49.206Z,-1.70
2019-01-09T07:24:19.463Z,-1.70
2019-01-09T07:26:49.647Z,-1.70
2019-01-09T07:29:19.893Z,-1.70
2019-01-09T07:31:50.061Z,-1.70
2019-01-09T07:34:20.233Z,-1.70
2019-01-09T07:36:50.477Z,-1.80
2019-01-09T07:39:21.602Z,-1.70
2019-01-09T07:41:51.787Z,-1.70
2019-01-09T07:44:22.026Z,-1.80
2019-01-09T07:46:52.181Z,-1.80
2019-01-09T07:49:23.238Z,-1.80
2019-01-09T07:51:53.405Z,-1.70
2019-01-09T07:54:23.590Z,-1.70
2019-01-09T07:56:53.810Z,-1.70
2019-01-09T07:59:24.149Z,-1.60
2019-01-09T08:01:54.369Z,-1.60
2019-01-09T08:04:24.607Z,-1.60
2019-01-09T08:06:54.797Z,-1.60
2019-01-09T08:09:25.209Z,-1.50
2019-01-09T08:11:55.553Z,-1.50
2019-01-09T08:14:25.735Z,-1.60
2019-01-09T08:16:56.049Z,-1.60
2019-01-09T08:19:26.238Z,-1.50
2019-01-09T08:21:56.482Z,-1.50
2019-01-09T08:24:26.670Z,-1.50
2019-01-09T08:26:56.897Z,-1.50
2019-01-09T08:29:27.067Z,-1.40
2019-01-09T08:31:57.235Z,-1.50
2019-01-09T08:34:27.487Z,-1.50
2019-01-09T08:36:57.638Z,-1.50
2019-01-09T08:39:27.801Z,-1.50
2019-01-09T08:41:58.170Z,-1.50
2019-01-09T08:44:28.457Z,-1.50
2019-01-09T08:46:58.623Z,-1.50
2019-01-09T08:49:28.868Z,-1.50
2019-01-09T08:51:59.057Z,-1.40
2019-01-09T08:54:29.246Z,-1.50
2019-01-09T08:56:59.413Z,-1.50
2019-01-09T08:59:29.682Z,-1.40
2019-01-09T09:01:59.849Z,-1.40
2019-01-09T09:04:30.130Z,-1.50
2019-01-09T09:07:00.325Z,-1.40
2019-01-09T09:09:31.509Z,-1.40
2019-01-09T09:12:01.793Z,-1.40
2019-01-09T09:14:32.184Z,-1.30
2019-01-09T09:17:02.389Z,-1.30
2019-01-09T09:19:33.574Z,-1.40
2019-01-09T09:22:03.745Z,-1.40
2019-01-09T09:24:34.148Z,-1.30
2019-01-09T09:27:05.397Z,-1.40
2019-01-09T09:29:35.662Z,-1.40
2019-01-09T09:32:05.829Z,-1.30
2019-01-09T09:34:36.109Z,-1.30
2019-01-09T09:37:09.529Z,-1.20
2019-01-09T09:39:39.710Z,-1.20
2019-01-09T09:42:10.302Z,-1.20
2019-01-09T09:44:40.577Z,-1.20
2019-01-09T09:47:10.742Z,-1.10
2019-01-09T09:49:40.946Z,-1.10
2019-01-09T09:52:11.198Z,-1.10
2019-01-09T09:54:41.491Z,-1.10
2019-01-09T09:57:11.764Z,-1.10
2019-01-09T09:59:43.618Z,-1.20
2019-01-09T10:02:14.155Z,-1.30
2019-01-09T10:04:44.413Z,-1.30
2019-01-09T10:07:14.602Z,-1.30
2019-01-09T10:09:44.842Z,-1.20
2019-01-09T10:12:14.993Z,-1.30
2019-01-09T10:14:45.227Z,-1.20
2019-01-09T10:17:15.370Z,-1.20
2019-01-09T10:19:45.690Z,-1.10
2019-01-09T10:22:15.858Z,-1.10
2019-01-09T10:24:46.009Z,-1.00
2019-01-09T10:27:16.166Z,-1.00
2019-01-09T10:29:46.334Z,-0.90
2019-01-09T10:32:16.467Z,-0.90
2019-01-09T10:34:46.626Z,-0.80
2019-01-09T10:37:16.781Z,-0.80
2019-01-09T10:39:47.000Z,-0.80
2019-01-09T10:42:17.271Z,-0.70
2019-01-09T10:44:47.456Z,-0.60
2019-01-09T10:47:17.597Z,-0.60
2019-01-09T10:49:47.753Z,-0.50
2019-01-09T10:52:17.975Z,-0.50
2019-01-09T10:54:48.302Z,-0.50
2019-01-09T10:57:18.519Z,-0.50
2019-01-09T10:59:48.667Z,-0.40
2019-01-09T11:02:25.955Z,-0.40
2019-01-09T11:04:56.351Z,-0.30
2019-01-09T11:07:29.560Z,-0.40
2019-01-09T11:09:59.798Z,-0.40
2019-01-09T11:12:29.952Z,-0.40
2019-01-09T11:15:00.151Z,-0.50
2019-01-09T11:17:30.425Z,-0.40
2019-01-09T11:20:00.737Z,-0.40
2019-01-09T11:22:30.889Z,-0.40
2019-01-09T11:25:01.659Z,-0.40
2019-01-09T11:27:32.278Z,-0.40
2019-01-09T11:30:02.494Z,-0.50
2019-01-09T11:32:32.720Z,-0.40
2019-01-09T11:35:02.881Z,-0.50
2019-01-09T11:37:33.031Z,-0.50
2019-01-09T11:40:03.207Z,-0.60
2019-01-09T11:42:33.362Z,-0.60
2019-01-09T11:45:03.910Z,-0.60
2019-01-09T11:47:34.138Z,-0.60
2019-01-09T11:50:05.158Z,-0.60
2019-01-09T11:52:35.611Z,-0.60
2019-01-09T11:55:08.083Z,-0.60
2019-01-09T11:57:38.430Z,-0.70
2019-01-09T12:00:23.681Z,-0.70
2019-01-09T12:02:54.075Z,-0.70
2019-01-09T12:05:24.240Z,-0.70
2019-01-09T12:07:54.389Z,-0.70
2019-01-09T12:10:30.233Z,-0.60
2019-01-09T12:12:57.233Z,-0.60
2019-01-09T12:15:27.570Z,-0.60
2019-01-09T12:17:57.718Z,-0.70
2019-01-09T12:20:27.956Z,-0.80
2019-01-09T12:22:58.107Z,-0.80
2019-01-09T12:25:28.267Z,-0.80
2019-01-09T12:27:58.472Z,-0.80
2019-01-09T12:30:29.369Z,-0.80
2019-01-09T12:32:59.583Z,-0.90
2019-01-09T12:35:29.721Z,-0.90
2019-01-09T12:37:59.942Z,-0.90
2019-01-09T12:40:30.094Z,-0.90
2019-01-09T12:43:00.289Z,-0.90
2019-01-09T12:45:30.459Z,-0.90
2019-01-09T12:48:00.665Z,-0.90
2019-01-09T12:50:30.835Z,-0.90
2019-01-09T12:53:00.986Z,-0.90
2019-01-09T12:55:31.125Z,-0.90
2019-01-09T12:58:02.287Z,-0.90
2019-01-09T13:00:32.445Z,-1.00
2019-01-09T13:03:02.638Z,-1.00
2019-01-09T13:05:33.222Z,-1.00
2019-01-09T13:08:03.414Z,-1.00
2019-01-09T13:10:33.673Z,-1.00
2019-01-09T13:13:04.265Z,-1.00
2019-01-09T13:15:34.447Z,-1.10
2019-01-09T13:18:05.397Z,-1.10
2019-01-09T13:20:35.709Z,-1.00
2019-01-09T13:23:05.990Z,-1.00
2019-01-09T13:25:36.159Z,-1.00
2019-01-09T13:28:06.306Z,-1.00
2019-01-09T13:30:36.615Z,-1.10
2019-01-09T13:33:19.671Z,-1.10
2019-01-09T13:35:54.147Z,-1.10
2019-01-09T13:38:24.318Z,-1.10
2019-01-09T13:40:59.170Z,-1.20
2019-01-09T13:43:35.242Z,-1.20
2019-01-09T13:46:09.705Z,-1.30
2019-01-09T13:48:47.089Z,-1.30
2019-01-09T13:51:17.538Z,-1.30
2019-01-09T13:53:47.702Z,-1.40
2019-01-09T13:56:17.904Z,-1.40
2019-01-09T13:58:48.127Z,-1.50
2019-01-09T14:01:18.321Z,-1.50
2019-01-09T14:03:48.674Z,-1.50
2019-01-09T14:06:18.906Z,-1.50
2019-01-09T14:08:49.122Z,-1.50
2019-01-09T14:11:19.281Z,-1.60
2019-01-09T14:13:49.433Z,-1.60
2019-01-09T14:16:19.843Z,-1.60
2019-01-09T14:18:55.149Z,-1.60
2019-01-09T14:21:21.983Z,-1.60
2019-01-09T14:23:52.121Z,-1.70
2019-01-09T14:26:22.574Z,-1.60
2019-01-09T14:28:52.710Z,-1.70
2019-01-09T14:31:22.934Z,-1.70
2019-01-09T14:33:53.103Z,-1.70
2019-01-09T14:36:23.400Z,-1.80
2019-01-09T14:38:53.640Z,-1.80
2019-01-09T14:41:23.878Z,-1.80
2019-01-09T14:43:54.038Z,-1.70
2019-01-09T14:46:24.243Z,-1.70
2019-01-09T14:48:54.571Z,-1.70
2019-01-09T14:51:24.710Z,-1.70
2019-01-09T14:53:54.940Z,-1.70
2019-01-09T14:56:25.102Z,-1.70
2019-01-09T14:58:55.251Z,-1.70
2019-01-09T15:01:25.422Z,-1.70
2019-01-09T15:03:55.636Z,-1.70
2019-01-09T15:06:25.822Z,-1.70
2019-01-09T15:08:56.061Z,-1.70
2019-01-09T15:11:26.222Z,-1.70
2019-01-09T15:13:56.453Z,-1.70
2019-01-09T15:16:26.730Z,-1.70
2019-01-09T15:18:56.902Z,-1.70
2019-01-09T15:21:27.110Z,-1.60
2019-01-09T15:23:57.342Z,-1.70
2019-01-09T15:26:27.562Z,-1.70
2019-01-09T15:28:57.845Z,-1.60
2019-01-09T15:31:28.079Z,-1.70
2019-01-09T15:33:58.277Z,-1.70
2019-01-09T15:36:28.479Z,-1.70
2019-01-09T15:38:58.654Z,-1.70
2019-01-09T15:41:29.002Z,-1.70
2019-01-09T15:43:59.135Z,-1.70
2019-01-09T15:46:29.310Z,-1.80
2019-01-09T15:48:59.550Z,-1.80
2019-01-09T15:51:29.789Z,-1.80
2019-01-09T15:54:00.089Z,-1.70
2019-01-09T15:56:30.440Z,-1.80
2019-01-09T15:59:00.606Z,-1.80
2019-01-09T16:01:30.759Z,-1.90
2019-01-09T16:04:00.980Z,-1.70
2019-01-09T16:06:31.181Z,-1.80
2019-01-09T16:09:02.475Z,-1.80
2019-01-09T16:11:34.513Z,-1.80
2019-01-09T16:14:04.721Z,-1.80
2019-01-09T16:16:34.866Z,-1.80
2019-01-09T16:19:05.131Z,-1.90
2019-01-09T16:21:35.280Z,-1.90
2019-01-09T16:24:05.546Z,-1.80
2019-01-09T16:26:35.807Z,-1.80
2019-01-09T16:29:06.142Z,-1.80
2019-01-09T16:31:38.874Z,-1.80
2019-01-09T16:34:09.141Z,-1.80
2019-01-09T16:36:39.316Z,-1.80
2019-01-09T16:39:10.614Z,-1.80
2019-01-09T16:41:40.818Z,-1.80
2019-01-09T16:44:10.959Z,-1.80
2019-01-09T16:46:41.117Z,-1.80
2019-01-09T16:49:11.612Z,-1.80
2019-01-09T16:51:41.888Z,-1.90
2019-01-09T16:54:12.188Z,-1.80
2019-01-09T16:56:42.792Z,-1.90
2019-01-09T16:59:13.025Z,-1.90
2019-01-09T17:01:43.245Z,-1.90
2019-01-09T17:04:13.426Z,-1.90
2019-01-09T17:06:43.977Z,-2.00
2019-01-09T17:09:14.268Z,-2.00
2019-01-09T17:11:44.542Z,-2.00
2019-01-09T17:14:14.813Z,-2.00
2019-01-09T17:16:44.987Z,-2.00
2019-01-09T17:19:15.286Z,-2.00
2019-01-09T17:21:45.561Z,-2.00
2019-01-09T17:24:15.789Z,-2.10
2019-01-09T17:26:45.953Z,-2.10
2019-01-09T17:29:16.288Z,-2.10
2019-01-09T17:31:46.530Z,-2.00
2019-01-09T17:34:16.871Z,-2.10
2019-01-09T17:36:47.210Z,-2.10
2019-01-09T17:39:17.494Z,-2.10
2019-01-09T17:41:47.821Z,-2.10
2019-01-09T17:44:17.983Z,-2.20
2019-01-09T17:46:48.138Z,-2.20
2019-01-09T17:49:18.333Z,-2.20
2019-01-09T17:51:48.900Z,-2.30
2019-01-09T17:54:19.130Z,-2.30
2019-01-09T17:56:49.345Z,-2.20
2019-01-09T17:59:19.531Z,-2.30
2019-01-09T18:01:49.850Z,-2.30
2019-01-09T18:04:20.406Z,-2.30
2019-01-09T18:06:50.682Z,-2.30
2019-01-09T18:09:21.040Z,-2.30
2019-01-09T18:11:51.318Z,-2.30
2019-01-09T18:14:21.510Z,-2.40
2019-01-09T18:16:51.786Z,-2.30
2019-01-09T18:19:21.960Z,-2.40
2019-01-09T18:21:52.149Z,-2.40
2019-01-09T18:24:22.786Z,-2.40
2019-01-09T18:26:53.199Z,-2.40
2019-01-09T18:29:23.395Z,-2.40
2019-01-09T18:32:27.854Z,-2.50
2019-01-09T18:36:00.672Z,-2.40
2019-01-09T18:38:41.691Z,-2.50
2019-01-09T18:41:50.138Z,-2.50
2019-01-09T18:45:00.542Z,-2.50
2019-01-09T18:48:13.425Z,-2.60
2019-01-09T18:51:36.830Z,-2.60
2019-01-09T18:54:07.075Z,-2.60
2019-01-09T18:56:37.405Z,-2.50
2019-01-09T18:59:07.653Z,-2.60
2019-01-09T19:01:37.883Z,-2.60
2019-01-09T19:04:08.562Z,-2.60
2019-01-09T19:06:38.914Z,-2.60
2019-01-09T19:09:10.914Z,-2.60
2019-01-09T19:11:41.105Z,-2.70
2019-01-09T19:14:11.324Z,-2.70
2019-01-09T19:16:41.585Z,-2.80
2019-01-09T19:19:11.790Z,-2.70
2019-01-09T19:21:42.018Z,-2.70
2019-01-09T19:24:12.225Z,-2.80
2019-01-09T19:26:42.382Z,-2.80
2019-01-09T19:29:13.158Z,-2.90
2019-01-09T19:31:43.479Z,-2.90
2019-01-09T19:34:13.743Z,-2.90
2019-01-09T19:36:44.006Z,-2.90
2019-01-09T19:39:14.229Z,-2.90
2019-01-09T19:41:44.708Z,-3.00
2019-01-09T19:44:14.997Z,-3.00
2019-01-09T19:46:45.202Z,-3.10
2019-01-09T19:49:16.099Z,-3.20
2019-01-09T19:51:46.649Z,-3.20
2019-01-09T19:54:16.930Z,-3.20
2019-01-09T19:56:47.184Z,-3.30
2019-01-09T19:59:17.438Z,-3.30
2019-01-09T20:01:47.710Z,-3.40
2019-01-09T20:04:17.938Z,-3.40
2019-01-09T20:06:48.154Z,-3.30
2019-01-09T20:09:18.361Z,-3.40
2019-01-09T20:11:48.565Z,-3.40
2019-01-09T20:14:18.844Z,-3.30
2019-01-09T20:16:49.050Z,-3.40
2019-01-09T20:19:19.398Z,-3.40
2019-01-09T20:21:49.877Z,-3.40
2019-01-09T20:24:20.122Z,-3.40
2019-01-09T20:26:50.338Z,-3.40
2019-01-09T20:29:20.565Z,-3.40
2019-01-09T20:31:50.722Z,-3.40
2019-01-09T20:34:20.928Z,-3.40
2019-01-09T20:36:51.089Z,-3.40
2019-01-09T20:39:21.691Z,-3.50
2019-01-09T20:41:52.120Z,-3.50
2019-01-09T20:44:22.288Z,-3.70
2019-01-09T20:46:52.434Z,-3.80
2019-01-09T20:49:22.821Z,-3.90
2019-01-09T20:51:53.104Z,-3.90
2019-01-09T20:54:23.584Z,-4.00
2019-01-09T20:56:54.373Z,-4.00
2019-01-09T20:59:24.998Z,-4.00
2019-01-09T21:01:55.238Z,-4.00
2019-01-09T21:04:25.510Z,-4.20
2019-01-09T21:06:55.767Z,-4.20
2019-01-09T21:09:25.998Z,-4.10
2019-01-09T21:11:57.162Z,-4.00
2019-01-09T21:14:27.342Z,-4.10
2019-01-09T21:16:57.549Z,-4.10
2019-01-09T21:19:27.748Z,-4.30
2019-01-09T21:21:57.940Z,-4.30
2019-01-09T21:24:28.081Z,-4.40
2019-01-09T21:26:58.294Z,-4.30
2019-01-09T21:29:28.765Z,-4.30
2019-01-09T21:31:59.021Z,-4.30
2019-01-09T21:34:29.252Z,-4.30
2019-01-09T21:36:59.477Z,-4.30
2019-01-09T21:39:29.702Z,-4.30
2019-01-09T21:42:00.035Z,-4.20
2019-01-09T21:44:30.313Z,-4.30
2019-01-09T21:47:00.595Z,-4.20
2019-01-09T21:49:30.858Z,-4.20
2019-01-09T21:52:01.225Z,-4.20
2019-01-09T21:54:31.682Z,-4.20
2019-01-09T21:57:01.939Z,-4.20
2019-01-09T21:59:32.101Z,-4.20
2019-01-09T22:02:02.278Z,-4.20
2019-01-09T22:04:32.663Z,-4.20
2019-01-09T22:07:02.981Z,-4.20
2019-01-09T22:09:33.258Z,-4.30
2019-01-09T22:12:03.546Z,-4.30
2019-01-09T22:14:33.793Z,-4.40
2019-01-09T22:17:04.059Z,-4.40
2019-01-09T22:19:34.409Z,-4.40
2019-01-09T22:22:04.646Z,-4.40
2019-01-09T22:24:34.815Z,-4.40
2019-01-09T22:27:06.085Z,-4.40
2019-01-09T22:29:36.240Z,-4.40
2019-01-09T22:32:06.428Z,-4.50
2019-01-09T22:34:36.642Z,-4.40
2019-01-09T22:37:06.906Z,-4.40
2019-01-09T22:39:37.066Z,-4.50
2019-01-09T22:42:11.948Z,-4.50
2019-01-09T22:44:39.090Z,-4.50
2019-01-09T22:47:10.123Z,-4.50
2019-01-09T22:49:40.322Z,-4.50
2019-01-09T22:52:10.466Z,-4.50
2019-01-09T22:54:40.645Z,-4.50
2019-01-09T22:57:10.871Z,-4.40
2019-01-09T22:59:41.038Z,-4.40
2019-01-09T23:02:11.586Z,-4.40
2019-01-09T23:04:41.925Z,-4.40
2019-01-09T23:07:12.458Z,-4.50
2019-01-09T23:09:42.597Z,-4.40
2019-01-09T23:12:20.848Z,-4.40
2019-01-09T23:14:44.750Z,-4.40
2019-01-09T23:17:14.995Z,-4.40
2019-01-09T23:19:45.193Z,-4.50
2019-01-09T23:22:15.341Z,-4.40
2019-01-09T23:24:45.486Z,-4.40
2019-01-09T23:27:15.782Z,-4.50
2019-01-09T23:29:46.064Z,-4.40
2019-01-09T23:32:16.474Z,-4.40
2019-01-09T23:34:47.620Z,-4.40
2019-01-09T23:37:17.789Z,-4.40
2019-01-09T23:39:47.947Z,-4.50
2019-01-09T23:42:18.113Z,-4.50
2019-01-09T23:44:48.330Z,-4.50
2019-01-09T23:47:20.323Z,-4.60
2019-01-09T23:49:50.501Z,-4.50
2019-01-09T23:52:20.640Z,-4.60
2019-01-09T23:54:50.826Z,-4.60
2019-01-09T23:57:20.994Z,-4.60
2019-01-09T23:59:51.146Z,-4.60
